sensor_id;sensor_type;location;lat;lon;timestamp;P1;durP1;ratioP1;P2;durP2;ratioP2
52294;SDS011;38243;53.212;6.574;2023-03-24T00:01:50;3.40;;;1.42;;
52294;SDS011;38243;53.212;6.574;2023-03-24T00:04:16;3.58;;;1.42;;
52294;SDS011;38243;53.212;6.574;2023-03-24T00:06:43;6.00;;;1.80;;
52294;SDS011;38243;53.212;6.574;2023-03-24T00:09:09;3.03;;;1.10;;
52294;SDS011;38243;53.212;6.574;2023-03-24T00:11:35;3.60;;;1.52;;
52294;SDS011;38243;53.212;6.574;2023-03-24T00:14:01;4.50;;;1.70;;
52294;SDS011;38243;53.212;6.574;2023-03-24T00:16:27;2.45;;;1.20;;
52294;SDS011;38243;53.212;6.574;2023-03-24T00:18:54;3.33;;;1.47;;
52294;SDS011;38243;53.212;6.574;2023-03-24T00:21:21;3.40;;;1.67;;
52294;SDS011;38243;53.212;6.574;2023-03-24T00:23:49;2.97;;;1.52;;
52294;SDS011;38243;53.212;6.574;2023-03-24T00:26:18;2.83;;;1.50;;
52294;SDS011;38243;53.212;6.574;2023-03-24T00:28:46;2.95;;;1.30;;
52294;SDS011;38243;53.212;6.574;2023-03-24T00:31:13;3.15;;;1.30;;
52294;SDS011;38243;53.212;6.574;2023-03-24T00:33:40;2.78;;;1.63;;
52294;SDS011;38243;53.212;6.574;2023-03-24T00:36:08;4.00;;;1.50;;
52294;SDS011;38243;53.212;6.574;2023-03-24T00:38:39;4.30;;;1.65;;
52294;SDS011;38243;53.212;6.574;2023-03-24T00:41:08;2.97;;;1.40;;
52294;SDS011;38243;53.212;6.574;2023-03-24T00:43:37;2.33;;;1.20;;
52294;SDS011;38243;53.212;6.574;2023-03-24T00:46:04;2.60;;;1.10;;
52294;SDS011;38243;53.212;6.574;2023-03-24T00:48:35;2.67;;;1.15;;
52294;SDS011;38243;53.212;6.574;2023-03-24T00:51:02;3.17;;;1.20;;
52294;SDS011;38243;53.212;6.574;2023-03-24T00:53:35;3.75;;;1.45;;
52294;SDS011;38243;53.212;6.574;2023-03-24T00:56:02;3.15;;;1.23;;
52294;SDS011;38243;53.212;6.574;2023-03-24T00:58:28;2.70;;;1.30;;
52294;SDS011;38243;53.212;6.574;2023-03-24T01:00:55;2.30;;;1.23;;
52294;SDS011;38243;53.212;6.574;2023-03-24T01:03:22;3.40;;;1.50;;
52294;SDS011;38243;53.212;6.574;2023-03-24T01:05:58;1.65;;;1.13;;
52294;SDS011;38243;53.212;6.574;2023-03-24T01:08:25;2.92;;;1.30;;
52294;SDS011;38243;53.212;6.574;2023-03-24T01:10:52;2.70;;;1.38;;
52294;SDS011;38243;53.212;6.574;2023-03-24T01:13:23;2.90;;;1.33;;
52294;SDS011;38243;53.212;6.574;2023-03-24T01:15:51;3.05;;;1.10;;
52294;SDS011;38243;53.212;6.574;2023-03-24T01:18:18;1.83;;;1.08;;
52294;SDS011;38243;53.212;6.574;2023-03-24T01:20:44;2.80;;;1.30;;
52294;SDS011;38243;53.212;6.574;2023-03-24T01:23:14;2.25;;;1.20;;
52294;SDS011;38243;53.212;6.574;2023-03-24T01:25:50;2.60;;;1.20;;
52294;SDS011;38243;53.212;6.574;2023-03-24T01:28:18;2.40;;;1.10;;
52294;SDS011;38243;53.212;6.574;2023-03-24T01:30:48;1.73;;;1.10;;
52294;SDS011;38243;53.212;6.574;2023-03-24T01:33:15;2.23;;;1.23;;
52294;SDS011;38243;53.212;6.574;2023-03-24T01:35:41;1.90;;;1.20;;
52294;SDS011;38243;53.212;6.574;2023-03-24T01:38:07;2.03;;;1.08;;
52294;SDS011;38243;53.212;6.574;2023-03-24T01:40:36;1.35;;;1.10;;
52294;SDS011;38243;53.212;6.574;2023-03-24T01:43:04;2.30;;;1.08;;
52294;SDS011;38243;53.212;6.574;2023-03-24T01:48:13;2.60;;;1.20;;
52294;SDS011;38243;53.212;6.574;2023-03-24T01:50:50;1.48;;;1.00;;
52294;SDS011;38243;53.212;6.574;2023-03-24T01:53:20;2.00;;;1.00;;
52294;SDS011;38243;53.212;6.574;2023-03-24T01:55:47;1.48;;;0.85;;
52294;SDS011;38243;53.212;6.574;2023-03-24T01:58:13;2.10;;;1.20;;
52294;SDS011;38243;53.212;6.574;2023-03-24T02:00:41;1.83;;;1.00;;
52294;SDS011;38243;53.212;6.574;2023-03-24T02:03:14;2.30;;;1.13;;
52294;SDS011;38243;53.212;6.574;2023-03-24T02:05:43;2.33;;;0.93;;
52294;SDS011;38243;53.212;6.574;2023-03-24T02:08:29;2.25;;;1.00;;
52294;SDS011;38243;53.212;6.574;2023-03-24T02:11:00;1.73;;;0.90;;
52294;SDS011;38243;53.212;6.574;2023-03-24T02:13:26;1.50;;;0.90;;
52294;SDS011;38243;53.212;6.574;2023-03-24T02:41:00;1.90;;;0.77;;
52294;SDS011;38243;53.212;6.574;2023-03-24T02:43:36;2.10;;;0.90;;
52294;SDS011;38243;53.212;6.574;2023-03-24T02:46:20;2.38;;;0.88;;
52294;SDS011;38243;53.212;6.574;2023-03-24T02:59:33;2.17;;;0.80;;
52294;SDS011;38243;53.212;6.574;2023-03-24T03:02:11;1.23;;;0.80;;
52294;SDS011;38243;53.212;6.574;2023-03-24T03:05:25;1.42;;;0.65;;
52294;SDS011;38243;53.212;6.574;2023-03-24T03:07:38;2.08;;;0.90;;
52294;SDS011;38243;53.212;6.574;2023-03-24T03:12:37;0.87;;;0.60;;
52294;SDS011;38243;53.212;6.574;2023-03-24T03:15:05;1.88;;;0.90;;
52294;SDS011;38243;53.212;6.574;2023-03-24T03:17:38;1.55;;;0.80;;
52294;SDS011;38243;53.212;6.574;2023-03-24T03:20:13;1.20;;;0.75;;
52294;SDS011;38243;53.212;6.574;2023-03-24T03:22:47;1.65;;;0.90;;
52294;SDS011;38243;53.212;6.574;2023-03-24T03:25:23;1.05;;;0.70;;
52294;SDS011;38243;53.212;6.574;2023-03-24T03:27:54;1.48;;;0.90;;
52294;SDS011;38243;53.212;6.574;2023-03-24T03:30:27;2.05;;;0.80;;
52294;SDS011;38243;53.212;6.574;2023-03-24T03:33:14;1.20;;;0.85;;
52294;SDS011;38243;53.212;6.574;2023-03-24T03:41:20;1.85;;;0.55;;
52294;SDS011;38243;53.212;6.574;2023-03-24T03:43:47;0.57;;;0.50;;
52294;SDS011;38243;53.212;6.574;2023-03-24T03:46:14;4.77;;;0.90;;
52294;SDS011;38243;53.212;6.574;2023-03-24T03:48:41;1.00;;;0.60;;
52294;SDS011;38243;53.212;6.574;2023-03-24T03:51:08;1.77;;;0.60;;
52294;SDS011;38243;53.212;6.574;2023-03-24T03:53:40;0.60;;;0.55;;
52294;SDS011;38243;53.212;6.574;2023-03-24T03:56:27;1.17;;;0.70;;
52294;SDS011;38243;53.212;6.574;2023-03-24T03:58:53;1.10;;;0.63;;
52294;SDS011;38243;53.212;6.574;2023-03-24T04:01:20;1.90;;;0.60;;
52294;SDS011;38243;53.212;6.574;2023-03-24T04:04:06;2.15;;;0.70;;
52294;SDS011;38243;53.212;6.574;2023-03-24T04:23:34;1.40;;;0.60;;
52294;SDS011;38243;53.212;6.574;2023-03-24T04:26:09;1.38;;;0.60;;
52294;SDS011;38243;53.212;6.574;2023-03-24T04:28:58;1.30;;;0.57;;
52294;SDS011;38243;53.212;6.574;2023-03-24T04:36:51;2.13;;;0.73;;
52294;SDS011;38243;53.212;6.574;2023-03-24T04:39:21;1.52;;;0.60;;
52294;SDS011;38243;53.212;6.574;2023-03-24T04:41:56;1.08;;;0.50;;
52294;SDS011;38243;53.212;6.574;2023-03-24T04:44:25;2.35;;;0.50;;
52294;SDS011;38243;53.212;6.574;2023-03-24T04:46:52;2.00;;;0.90;;
52294;SDS011;38243;53.212;6.574;2023-03-24T04:49:21;1.08;;;0.40;;
52294;SDS011;38243;53.212;6.574;2023-03-24T04:51:49;1.40;;;0.50;;
52294;SDS011;38243;53.212;6.574;2023-03-24T04:54:16;2.38;;;0.68;;
52294;SDS011;38243;53.212;6.574;2023-03-24T04:56:43;2.75;;;0.60;;
52294;SDS011;38243;53.212;6.574;2023-03-24T04:59:11;2.55;;;0.65;;
52294;SDS011;38243;53.212;6.574;2023-03-24T05:01:39;2.00;;;0.60;;
52294;SDS011;38243;53.212;6.574;2023-03-24T05:04:05;1.63;;;0.70;;
52294;SDS011;38243;53.212;6.574;2023-03-24T05:06:32;3.13;;;0.60;;
52294;SDS011;38243;53.212;6.574;2023-03-24T05:08:58;1.40;;;0.50;;
52294;SDS011;38243;53.212;6.574;2023-03-24T05:11:27;2.08;;;0.70;;
52294;SDS011;38243;53.212;6.574;2023-03-24T05:13:53;2.00;;;0.70;;
52294;SDS011;38243;53.212;6.574;2023-03-24T05:16:19;1.85;;;0.60;;
52294;SDS011;38243;53.212;6.574;2023-03-24T05:18:46;1.60;;;0.63;;
52294;SDS011;38243;53.212;6.574;2023-03-24T05:21:11;2.08;;;0.65;;
52294;SDS011;38243;53.212;6.574;2023-03-24T05:23:37;2.15;;;0.80;;
52294;SDS011;38243;53.212;6.574;2023-03-24T05:26:11;4.63;;;0.65;;
52294;SDS011;38243;53.212;6.574;2023-03-24T05:28:36;2.40;;;0.60;;
52294;SDS011;38243;53.212;6.574;2023-03-24T05:31:02;2.40;;;0.70;;
52294;SDS011;38243;53.212;6.574;2023-03-24T05:33:28;4.07;;;0.90;;
52294;SDS011;38243;53.212;6.574;2023-03-24T05:35:53;1.70;;;0.60;;
52294;SDS011;38243;53.212;6.574;2023-03-24T05:38:19;3.17;;;0.88;;
52294;SDS011;38243;53.212;6.574;2023-03-24T05:40:45;2.13;;;0.60;;
52294;SDS011;38243;53.212;6.574;2023-03-24T05:43:11;2.13;;;0.70;;
52294;SDS011;38243;53.212;6.574;2023-03-24T05:45:37;2.17;;;0.50;;
52294;SDS011;38243;53.212;6.574;2023-03-24T05:48:03;3.30;;;1.00;;
52294;SDS011;38243;53.212;6.574;2023-03-24T05:50:29;2.63;;;0.88;;
52294;SDS011;38243;53.212;6.574;2023-03-24T05:52:55;3.08;;;0.85;;
52294;SDS011;38243;53.212;6.574;2023-03-24T05:55:21;1.90;;;0.65;;
52294;SDS011;38243;53.212;6.574;2023-03-24T05:57:47;2.30;;;0.60;;
52294;SDS011;38243;53.212;6.574;2023-03-24T06:00:13;3.92;;;0.80;;
52294;SDS011;38243;53.212;6.574;2023-03-24T06:02:44;3.10;;;0.85;;
52294;SDS011;38243;53.212;6.574;2023-03-24T06:05:10;2.15;;;0.80;;
52294;SDS011;38243;53.212;6.574;2023-03-24T06:07:37;2.33;;;0.70;;
52294;SDS011;38243;53.212;6.574;2023-03-24T06:10:06;3.88;;;0.98;;
52294;SDS011;38243;53.212;6.574;2023-03-24T06:12:34;2.57;;;0.70;;
52294;SDS011;38243;53.212;6.574;2023-03-24T06:15:00;3.40;;;1.00;;
52294;SDS011;38243;53.212;6.574;2023-03-24T06:17:27;4.35;;;1.05;;
52294;SDS011;38243;53.212;6.574;2023-03-24T06:19:54;3.83;;;1.08;;
52294;SDS011;38243;53.212;6.574;2023-03-24T06:22:27;3.05;;;0.80;;
52294;SDS011;38243;53.212;6.574;2023-03-24T06:24:53;4.50;;;1.10;;
52294;SDS011;38243;53.212;6.574;2023-03-24T06:27:20;5.00;;;1.15;;
52294;SDS011;38243;53.212;6.574;2023-03-24T06:29:49;6.38;;;1.20;;
52294;SDS011;38243;53.212;6.574;2023-03-24T06:32:19;7.95;;;1.20;;
52294;SDS011;38243;53.212;6.574;2023-03-24T06:34:45;7.13;;;1.13;;
52294;SDS011;38243;53.212;6.574;2023-03-24T06:37:10;5.23;;;1.10;;
52294;SDS011;38243;53.212;6.574;2023-03-24T06:39:36;4.70;;;1.58;;
52294;SDS011;38243;53.212;6.574;2023-03-24T06:42:03;4.55;;;1.17;;
52294;SDS011;38243;53.212;6.574;2023-03-24T06:44:29;5.78;;;1.35;;
52294;SDS011;38243;53.212;6.574;2023-03-24T06:46:55;6.30;;;1.37;;
52294;SDS011;38243;53.212;6.574;2023-03-24T06:49:20;5.22;;;1.10;;
52294;SDS011;38243;53.212;6.574;2023-03-24T06:51:46;7.80;;;1.40;;
52294;SDS011;38243;53.212;6.574;2023-03-24T06:54:12;5.40;;;1.20;;
52294;SDS011;38243;53.212;6.574;2023-03-24T06:56:38;6.50;;;1.00;;
52294;SDS011;38243;53.212;6.574;2023-03-24T06:59:04;5.47;;;1.27;;
52294;SDS011;38243;53.212;6.574;2023-03-24T07:01:29;5.03;;;1.13;;
52294;SDS011;38243;53.212;6.574;2023-03-24T07:03:56;6.60;;;1.30;;
52294;SDS011;38243;53.212;6.574;2023-03-24T07:06:21;4.43;;;1.13;;
52294;SDS011;38243;53.212;6.574;2023-03-24T07:08:48;5.93;;;1.70;;
52294;SDS011;38243;53.212;6.574;2023-03-24T07:11:14;5.97;;;1.02;;
52294;SDS011;38243;53.212;6.574;2023-03-24T07:13:40;5.50;;;1.40;;
52294;SDS011;38243;53.212;6.574;2023-03-24T07:16:06;5.57;;;1.20;;
52294;SDS011;38243;53.212;6.574;2023-03-24T07:18:32;4.93;;;1.20;;
52294;SDS011;38243;53.212;6.574;2023-03-24T07:20:58;5.10;;;1.55;;
52294;SDS011;38243;53.212;6.574;2023-03-24T07:23:24;7.00;;;1.50;;
52294;SDS011;38243;53.212;6.574;2023-03-24T07:25:51;6.10;;;1.33;;
52294;SDS011;38243;53.212;6.574;2023-03-24T07:28:17;5.57;;;1.30;;
52294;SDS011;38243;53.212;6.574;2023-03-24T07:30:43;6.65;;;1.23;;
52294;SDS011;38243;53.212;6.574;2023-03-24T07:33:08;6.53;;;1.42;;
52294;SDS011;38243;53.212;6.574;2023-03-24T07:35:36;14.10;;;1.75;;
52294;SDS011;38243;53.212;6.574;2023-03-24T07:38:03;6.30;;;1.58;;
52294;SDS011;38243;53.212;6.574;2023-03-24T07:40:29;6.28;;;1.45;;
52294;SDS011;38243;53.212;6.574;2023-03-24T07:42:58;6.45;;;1.50;;
52294;SDS011;38243;53.212;6.574;2023-03-24T07:45:25;6.20;;;1.30;;
52294;SDS011;38243;53.212;6.574;2023-03-24T07:47:52;7.00;;;1.63;;
52294;SDS011;38243;53.212;6.574;2023-03-24T07:50:18;6.63;;;1.40;;
52294;SDS011;38243;53.212;6.574;2023-03-24T07:52:48;5.78;;;1.42;;
52294;SDS011;38243;53.212;6.574;2023-03-24T07:55:15;5.07;;;1.42;;
52294;SDS011;38243;53.212;6.574;2023-03-24T07:57:47;6.97;;;1.60;;
52294;SDS011;38243;53.212;6.574;2023-03-24T08:00:14;6.50;;;1.42;;
52294;SDS011;38243;53.212;6.574;2023-03-24T08:02:52;8.20;;;1.77;;
52294;SDS011;38243;53.212;6.574;2023-03-24T08:05:18;7.77;;;1.73;;
52294;SDS011;38243;53.212;6.574;2023-03-24T08:07:46;7.88;;;1.65;;
52294;SDS011;38243;53.212;6.574;2023-03-24T08:10:29;6.50;;;1.60;;
52294;SDS011;38243;53.212;6.574;2023-03-24T08:12:55;6.55;;;1.70;;
52294;SDS011;38243;53.212;6.574;2023-03-24T08:15:21;8.57;;;1.70;;
52294;SDS011;38243;53.212;6.574;2023-03-24T08:17:48;6.88;;;1.52;;
52294;SDS011;38243;53.212;6.574;2023-03-24T08:20:15;7.32;;;2.05;;
52294;SDS011;38243;53.212;6.574;2023-03-24T08:22:44;8.10;;;1.77;;
52294;SDS011;38243;53.212;6.574;2023-03-24T08:25:18;10.00;;;2.38;;
52294;SDS011;38243;53.212;6.574;2023-03-24T08:27:46;8.70;;;2.08;;
52294;SDS011;38243;53.212;6.574;2023-03-24T08:30:16;10.40;;;2.10;;
52294;SDS011;38243;53.212;6.574;2023-03-24T08:32:48;9.45;;;2.20;;
52294;SDS011;38243;53.212;6.574;2023-03-24T08:35:20;6.95;;;2.03;;
52294;SDS011;38243;53.212;6.574;2023-03-24T08:37:56;9.75;;;2.75;;
52294;SDS011;38243;53.212;6.574;2023-03-24T08:40:26;10.00;;;2.50;;
52294;SDS011;38243;53.212;6.574;2023-03-24T08:42:53;8.90;;;1.95;;
52294;SDS011;38243;53.212;6.574;2023-03-24T08:45:21;7.97;;;1.95;;
52294;SDS011;38243;53.212;6.574;2023-03-24T08:47:52;10.90;;;2.50;;
52294;SDS011;38243;53.212;6.574;2023-03-24T08:50:19;7.88;;;2.03;;
52294;SDS011;38243;53.212;6.574;2023-03-24T08:52:46;9.05;;;2.00;;
52294;SDS011;38243;53.212;6.574;2023-03-24T08:55:13;8.75;;;2.28;;
52294;SDS011;38243;53.212;6.574;2023-03-24T08:57:40;7.93;;;2.17;;
52294;SDS011;38243;53.212;6.574;2023-03-24T09:00:06;9.13;;;1.75;;
52294;SDS011;38243;53.212;6.574;2023-03-24T09:02:37;7.55;;;2.00;;
52294;SDS011;38243;53.212;6.574;2023-03-24T09:05:03;9.32;;;2.20;;
52294;SDS011;38243;53.212;6.574;2023-03-24T09:07:29;8.10;;;2.17;;
52294;SDS011;38243;53.212;6.574;2023-03-24T09:09:54;8.60;;;2.00;;
52294;SDS011;38243;53.212;6.574;2023-03-24T09:12:21;8.63;;;2.17;;
52294;SDS011;38243;53.212;6.574;2023-03-24T09:14:47;8.57;;;2.05;;
52294;SDS011;38243;53.212;6.574;2023-03-24T09:17:14;9.88;;;2.28;;
52294;SDS011;38243;53.212;6.574;2023-03-24T09:19:40;8.48;;;2.30;;
52294;SDS011;38243;53.212;6.574;2023-03-24T09:22:06;8.70;;;2.00;;
52294;SDS011;38243;53.212;6.574;2023-03-24T09:24:32;8.52;;;2.33;;
52294;SDS011;38243;53.212;6.574;2023-03-24T09:26:58;8.47;;;1.97;;
52294;SDS011;38243;53.212;6.574;2023-03-24T09:29:24;7.30;;;1.92;;
52294;SDS011;38243;53.212;6.574;2023-03-24T09:31:49;9.20;;;2.60;;
52294;SDS011;38243;53.212;6.574;2023-03-24T09:34:17;7.53;;;1.77;;
52294;SDS011;38243;53.212;6.574;2023-03-24T09:36:43;7.72;;;2.08;;
52294;SDS011;38243;53.212;6.574;2023-03-24T09:39:09;7.80;;;2.17;;
52294;SDS011;38243;53.212;6.574;2023-03-24T09:41:35;7.93;;;1.88;;
52294;SDS011;38243;53.212;6.574;2023-03-24T09:44:06;7.53;;;1.90;;
52294;SDS011;38243;53.212;6.574;2023-03-24T09:46:44;6.90;;;1.80;;
52294;SDS011;38243;53.212;6.574;2023-03-24T09:49:25;7.25;;;2.08;;
52294;SDS011;38243;53.212;6.574;2023-03-24T09:51:54;8.55;;;2.13;;
52294;SDS011;38243;53.212;6.574;2023-03-24T09:54:30;7.67;;;1.67;;
52294;SDS011;38243;53.212;6.574;2023-03-24T09:59:53;8.35;;;2.15;;
52294;SDS011;38243;53.212;6.574;2023-03-24T10:02:20;8.50;;;2.30;;
52294;SDS011;38243;53.212;6.574;2023-03-24T10:04:47;6.43;;;1.90;;
52294;SDS011;38243;53.212;6.574;2023-03-24T10:09:47;9.40;;;2.10;;
52294;SDS011;38243;53.212;6.574;2023-03-24T10:14:57;7.90;;;1.80;;
52294;SDS011;38243;53.212;6.574;2023-03-24T10:17:35;6.90;;;1.90;;
52294;SDS011;38243;53.212;6.574;2023-03-24T10:28:19;7.33;;;2.03;;
52294;SDS011;38243;53.212;6.574;2023-03-24T10:30:49;6.88;;;1.90;;
52294;SDS011;38243;53.212;6.574;2023-03-24T10:33:17;9.30;;;2.10;;
52294;SDS011;38243;53.212;6.574;2023-03-24T10:36:04;8.07;;;1.95;;
52294;SDS011;38243;53.212;6.574;2023-03-24T10:38:32;8.77;;;2.13;;
52294;SDS011;38243;53.212;6.574;2023-03-24T10:40:58;6.18;;;1.60;;
52294;SDS011;38243;53.212;6.574;2023-03-24T10:43:25;7.82;;;2.17;;
52294;SDS011;38243;53.212;6.574;2023-03-24T10:45:52;6.30;;;1.80;;
52294;SDS011;38243;53.212;6.574;2023-03-24T10:51:34;10.35;;;1.90;;
52294;SDS011;38243;53.212;6.574;2023-03-24T10:56:50;7.63;;;1.83;;
52294;SDS011;38243;53.212;6.574;2023-03-24T10:59:26;9.27;;;2.33;;
52294;SDS011;38243;53.212;6.574;2023-03-24T11:04:35;10.55;;;1.95;;
52294;SDS011;38243;53.212;6.574;2023-03-24T11:07:15;7.30;;;1.75;;
52294;SDS011;38243;53.212;6.574;2023-03-24T11:09:46;9.57;;;2.15;;
52294;SDS011;38243;53.212;6.574;2023-03-24T11:12:36;8.30;;;1.88;;
52294;SDS011;38243;53.212;6.574;2023-03-24T11:17:40;11.93;;;2.43;;
52294;SDS011;38243;53.212;6.574;2023-03-24T11:20:14;7.65;;;1.80;;
52294;SDS011;38243;53.212;6.574;2023-03-24T11:22:47;7.25;;;1.85;;
52294;SDS011;38243;53.212;6.574;2023-03-24T11:25:27;8.32;;;1.83;;
52294;SDS011;38243;53.212;6.574;2023-03-24T11:27:57;7.97;;;1.98;;
52294;SDS011;38243;53.212;6.574;2023-03-24T11:30:26;9.07;;;2.10;;
52294;SDS011;38243;53.212;6.574;2023-03-24T11:35:49;6.22;;;1.65;;
52294;SDS011;38243;53.212;6.574;2023-03-24T11:38:16;8.17;;;2.20;;
52294;SDS011;38243;53.212;6.574;2023-03-24T11:40:54;10.50;;;2.15;;
52294;SDS011;38243;53.212;6.574;2023-03-24T11:43:25;7.70;;;2.00;;
52294;SDS011;38243;53.212;6.574;2023-03-24T11:48:46;7.72;;;2.00;;
52294;SDS011;38243;53.212;6.574;2023-03-24T11:53:55;7.03;;;1.90;;
52294;SDS011;38243;53.212;6.574;2023-03-24T11:56:24;4.97;;;1.70;;
52294;SDS011;38243;53.212;6.574;2023-03-24T11:59:10;6.18;;;1.88;;
52294;SDS011;38243;53.212;6.574;2023-03-24T12:01:50;6.63;;;1.70;;
52294;SDS011;38243;53.212;6.574;2023-03-24T12:07:43;7.85;;;2.00;;
52294;SDS011;38243;53.212;6.574;2023-03-24T12:10:20;7.65;;;1.70;;
52294;SDS011;38243;53.212;6.574;2023-03-24T12:13:12;7.32;;;1.85;;
52294;SDS011;38243;53.212;6.574;2023-03-24T12:15:50;6.47;;;1.70;;
52294;SDS011;38243;53.212;6.574;2023-03-24T12:21:27;5.88;;;1.85;;
52294;SDS011;38243;53.212;6.574;2023-03-24T12:26:43;5.40;;;1.70;;
52294;SDS011;38243;53.212;6.574;2023-03-24T12:43:11;5.72;;;1.60;;
52294;SDS011;38243;53.212;6.574;2023-03-24T12:46:06;6.90;;;2.15;;
52294;SDS011;38243;53.212;6.574;2023-03-24T12:48:47;7.32;;;1.63;;
52294;SDS011;38243;53.212;6.574;2023-03-24T12:56:55;7.77;;;1.70;;
52294;SDS011;38243;53.212;6.574;2023-03-24T12:59:28;8.15;;;1.63;;
52294;SDS011;38243;53.212;6.574;2023-03-24T13:02:21;7.75;;;2.00;;
52294;SDS011;38243;53.212;6.574;2023-03-24T13:04:48;8.07;;;1.65;;
52294;SDS011;38243;53.212;6.574;2023-03-24T13:07:18;12.95;;;1.85;;
52294;SDS011;38243;53.212;6.574;2023-03-24T13:12:40;9.30;;;1.92;;
52294;SDS011;38243;53.212;6.574;2023-03-24T13:15:32;8.65;;;1.88;;
52294;SDS011;38243;53.212;6.574;2023-03-24T13:28:38;7.13;;;1.52;;
52294;SDS011;38243;53.212;6.574;2023-03-24T13:31:11;8.30;;;1.50;;
52294;SDS011;38243;53.212;6.574;2023-03-24T13:33:38;5.33;;;1.37;;
52294;SDS011;38243;53.212;6.574;2023-03-24T13:38:59;6.20;;;1.50;;
52294;SDS011;38243;53.212;6.574;2023-03-24T13:41:31;6.60;;;1.50;;
52294;SDS011;38243;53.212;6.574;2023-03-24T13:44:07;5.73;;;1.60;;
52294;SDS011;38243;53.212;6.574;2023-03-24T13:47:28;6.65;;;1.70;;
52294;SDS011;38243;53.212;6.574;2023-03-24T13:49:37;5.38;;;1.60;;
52294;SDS011;38243;53.212;6.574;2023-03-24T13:52:05;7.72;;;1.80;;
52294;SDS011;38243;53.212;6.574;2023-03-24T13:54:44;7.03;;;1.70;;
52294;SDS011;38243;53.212;6.574;2023-03-24T13:57:18;6.20;;;1.83;;
52294;SDS011;38243;53.212;6.574;2023-03-24T14:13:02;9.68;;;1.80;;
52294;SDS011;38243;53.212;6.574;2023-03-24T14:15:54;5.25;;;1.75;;
52294;SDS011;38243;53.212;6.574;2023-03-24T14:25:56;6.90;;;1.50;;
52294;SDS011;38243;53.212;6.574;2023-03-24T14:28:24;7.72;;;1.50;;
52294;SDS011;38243;53.212;6.574;2023-03-24T14:31:00;8.93;;;1.75;;
52294;SDS011;38243;53.212;6.574;2023-03-24T14:41:50;8.20;;;1.45;;
52294;SDS011;38243;53.212;6.574;2023-03-24T14:47:13;6.50;;;1.38;;
52294;SDS011;38243;53.212;6.574;2023-03-24T14:49:53;9.02;;;1.85;;
52294;SDS011;38243;53.212;6.574;2023-03-24T14:52:22;5.53;;;1.60;;
52294;SDS011;38243;53.212;6.574;2023-03-24T14:54:58;4.90;;;1.40;;
52294;SDS011;38243;53.212;6.574;2023-03-24T15:02:39;5.57;;;1.58;;
52294;SDS011;38243;53.212;6.574;2023-03-24T15:07:41;6.00;;;1.50;;
52294;SDS011;38243;53.212;6.574;2023-03-24T15:10:14;5.80;;;1.27;;
52294;SDS011;38243;53.212;6.574;2023-03-24T15:12:45;5.60;;;1.50;;
52294;SDS011;38243;53.212;6.574;2023-03-24T15:15:16;6.45;;;1.85;;
52294;SDS011;38243;53.212;6.574;2023-03-24T15:17:52;6.50;;;1.65;;
52294;SDS011;38243;53.212;6.574;2023-03-24T15:20:28;4.07;;;1.38;;
52294;SDS011;38243;53.212;6.574;2023-03-24T15:23:05;4.88;;;1.23;;
52294;SDS011;38243;53.212;6.574;2023-03-24T15:25:32;7.07;;;1.60;;
52294;SDS011;38243;53.212;6.574;2023-03-24T15:27:58;5.72;;;1.40;;
52294;SDS011;38243;53.212;6.574;2023-03-24T15:30:24;6.13;;;1.55;;
52294;SDS011;38243;53.212;6.574;2023-03-24T15:32:52;5.03;;;1.20;;
52294;SDS011;38243;53.212;6.574;2023-03-24T15:35:20;5.20;;;1.40;;
52294;SDS011;38243;53.212;6.574;2023-03-24T15:37:50;7.97;;;1.65;;
52294;SDS011;38243;53.212;6.574;2023-03-24T15:42:58;6.50;;;1.45;;
52294;SDS011;38243;53.212;6.574;2023-03-24T15:48:10;4.88;;;1.40;;
52294;SDS011;38243;53.212;6.574;2023-03-24T15:50:39;4.38;;;1.17;;
52294;SDS011;38243;53.212;6.574;2023-03-24T15:55:43;5.93;;;1.60;;
52294;SDS011;38243;53.212;6.574;2023-03-24T15:58:28;6.85;;;1.58;;
52294;SDS011;38243;53.212;6.574;2023-03-24T16:00:59;6.47;;;1.57;;
52294;SDS011;38243;53.212;6.574;2023-03-24T16:03:30;7.37;;;1.63;;
52294;SDS011;38243;53.212;6.574;2023-03-24T16:05:58;5.15;;;1.50;;
52294;SDS011;38243;53.212;6.574;2023-03-24T16:08:24;7.03;;;1.77;;
52294;SDS011;38243;53.212;6.574;2023-03-24T16:11:11;14.55;;;1.80;;
52294;SDS011;38243;53.212;6.574;2023-03-24T16:13:38;7.70;;;1.60;;
52294;SDS011;38243;53.212;6.574;2023-03-24T16:18:38;5.40;;;1.33;;
52294;SDS011;38243;53.212;6.574;2023-03-24T16:23:45;5.50;;;1.60;;
52294;SDS011;38243;53.212;6.574;2023-03-24T16:26:15;5.90;;;1.40;;
52294;SDS011;38243;53.212;6.574;2023-03-24T16:28:42;7.32;;;1.58;;
52294;SDS011;38243;53.212;6.574;2023-03-24T16:33:45;4.70;;;1.40;;
52294;SDS011;38243;53.212;6.574;2023-03-24T16:36:12;4.20;;;1.15;;
52294;SDS011;38243;53.212;6.574;2023-03-24T16:38:39;3.88;;;1.10;;
52294;SDS011;38243;53.212;6.574;2023-03-24T16:41:05;5.55;;;1.38;;
52294;SDS011;38243;53.212;6.574;2023-03-24T16:43:35;4.88;;;1.15;;
52294;SDS011;38243;53.212;6.574;2023-03-24T16:46:00;5.75;;;1.33;;
52294;SDS011;38243;53.212;6.574;2023-03-24T16:48:27;4.13;;;1.10;;
52294;SDS011;38243;53.212;6.574;2023-03-24T16:50:53;5.30;;;1.47;;
52294;SDS011;38243;53.212;6.574;2023-03-24T16:53:20;7.43;;;1.20;;
52294;SDS011;38243;53.212;6.574;2023-03-24T16:55:46;5.43;;;1.30;;
52294;SDS011;38243;53.212;6.574;2023-03-24T16:58:12;6.20;;;1.10;;
52294;SDS011;38243;53.212;6.574;2023-03-24T17:00:41;3.45;;;1.00;;
52294;SDS011;38243;53.212;6.574;2023-03-24T17:03:13;5.18;;;1.05;;
52294;SDS011;38243;53.212;6.574;2023-03-24T17:05:41;3.65;;;0.98;;
52294;SDS011;38243;53.212;6.574;2023-03-24T17:08:10;6.50;;;1.42;;
52294;SDS011;38243;53.212;6.574;2023-03-24T17:10:36;4.72;;;1.25;;
52294;SDS011;38243;53.212;6.574;2023-03-24T17:13:04;5.07;;;1.23;;
52294;SDS011;38243;53.212;6.574;2023-03-24T17:15:30;4.83;;;1.13;;
52294;SDS011;38243;53.212;6.574;2023-03-24T17:17:57;4.27;;;1.20;;
52294;SDS011;38243;53.212;6.574;2023-03-24T17:20:24;6.72;;;1.45;;
52294;SDS011;38243;53.212;6.574;2023-03-24T17:22:52;3.00;;;1.00;;
52294;SDS011;38243;53.212;6.574;2023-03-24T17:25:21;5.18;;;1.25;;
52294;SDS011;38243;53.212;6.574;2023-03-24T17:27:47;8.27;;;1.50;;
52294;SDS011;38243;53.212;6.574;2023-03-24T17:30:20;4.70;;;1.10;;
52294;SDS011;38243;53.212;6.574;2023-03-24T17:32:47;5.65;;;1.20;;
52294;SDS011;38243;53.212;6.574;2023-03-24T17:35:13;6.50;;;1.40;;
52294;SDS011;38243;53.212;6.574;2023-03-24T17:37:41;5.47;;;1.27;;
52294;SDS011;38243;53.212;6.574;2023-03-24T17:40:08;5.47;;;1.30;;
52294;SDS011;38243;53.212;6.574;2023-03-24T17:42:37;6.07;;;1.25;;
52294;SDS011;38243;53.212;6.574;2023-03-24T17:45:05;6.32;;;1.27;;
52294;SDS011;38243;53.212;6.574;2023-03-24T17:47:32;6.20;;;1.55;;
52294;SDS011;38243;53.212;6.574;2023-03-24T17:49:58;3.92;;;1.10;;
52294;SDS011;38243;53.212;6.574;2023-03-24T17:52:24;5.85;;;1.42;;
52294;SDS011;38243;53.212;6.574;2023-03-24T17:54:50;9.93;;;1.30;;
52294;SDS011;38243;53.212;6.574;2023-03-24T17:57:15;6.70;;;1.52;;
52294;SDS011;38243;53.212;6.574;2023-03-24T17:59:42;6.00;;;1.30;;
52294;SDS011;38243;53.212;6.574;2023-03-24T18:02:11;4.78;;;1.33;;
52294;SDS011;38243;53.212;6.574;2023-03-24T18:04:37;4.90;;;1.30;;
52294;SDS011;38243;53.212;6.574;2023-03-24T18:07:03;5.43;;;1.35;;
52294;SDS011;38243;53.212;6.574;2023-03-24T18:09:32;6.97;;;1.30;;
52294;SDS011;38243;53.212;6.574;2023-03-24T18:11:58;6.97;;;1.50;;
52294;SDS011;38243;53.212;6.574;2023-03-24T18:14:24;4.93;;;1.30;;
52294;SDS011;38243;53.212;6.574;2023-03-24T18:16:50;5.77;;;1.60;;
52294;SDS011;38243;53.212;6.574;2023-03-24T18:19:16;7.22;;;1.52;;
52294;SDS011;38243;53.212;6.574;2023-03-24T18:21:42;4.10;;;1.70;;
52294;SDS011;38243;53.212;6.574;2023-03-24T18:24:08;7.20;;;1.80;;
52294;SDS011;38243;53.212;6.574;2023-03-24T18:26:34;6.10;;;1.92;;
52294;SDS011;38243;53.212;6.574;2023-03-24T18:29:00;8.18;;;2.25;;